Dadu Airport


Codes: OPDD/DDU
Name: Dadu Airport
City: Dadu
Country: Pakistan
Elevation: 121 ft.

Photos at Dadu Airport


   Photos courtesy of SpottingLog. You can add your own sightings and photos by signing up for a free trial today.



No photos found.

Weather at Dadu Airport


Time (UTC)DescriptionTempratureWindCloud coverageVisibilityPressureHumidity
13-Jun-2024 03:00Clear Sky34°C9 mph, SW0%10000m1000hPa48%
13-Jun-2024 06:00Clear Sky36°C4 mph, W0%10000m1000hPa42%
13-Jun-2024 09:00Clear Sky40°C4 mph, SW0%10000m998hPa29%
13-Jun-2024 12:00Clear Sky45°C7 mph, S0%10000m994hPa15%
13-Jun-2024 15:00Clear Sky39°C18 mph, SW0%10000m995hPa35%
13-Jun-2024 18:00Few Clouds36°C13 mph, SW11%10000m997hPa41%
13-Jun-2024 21:00Clear Sky33°C13 mph, SW8%10000m996hPa52%
14-Jun-2024 00:00Clear Sky31°C11 mph, SW4%10000m996hPa58%
14-Jun-2024 03:00Clear Sky33°C9 mph, SW0%10000m998hPa51%
14-Jun-2024 06:00Clear Sky40°C4 mph, SW0%10000m997hPa30%
14-Jun-2024 09:00Clear Sky44°C7 mph, SW0%10000m995hPa22%
14-Jun-2024 12:00Clear Sky42°C22 mph, SW0%10000m993hPa23%
14-Jun-2024 15:00Few Clouds39°C27 mph, SW14%10000m995hPa29%
14-Jun-2024 18:00Few Clouds36°C9 mph, S21%10000m996hPa31%
14-Jun-2024 21:00Scattered Clouds34°C9 mph, SW30%10000m996hPa39%
15-Jun-2024 00:00Few Clouds32°C9 mph, SW19%10000m996hPa55%
15-Jun-2024 03:00Clear Sky35°C9 mph, SW9%10000m998hPa43%
15-Jun-2024 06:00Clear Sky41°C4 mph, W5%10000m998hPa22%
15-Jun-2024 09:00Clear Sky44°C2 mph, W0%10000m995hPa16%
15-Jun-2024 12:00Clear Sky45°C2 mph, SE0%10000m994hPa15%
15-Jun-2024 15:00Clear Sky44°C4 mph, SE0%10000m994hPa16%
15-Jun-2024 18:00Clear Sky38°C11 mph, SW1%10000m996hPa41%
15-Jun-2024 21:00Clear Sky36°C9 mph, S1%10000m996hPa47%
16-Jun-2024 00:00Clear Sky34°C11 mph, SW1%10000m997hPa54%
16-Jun-2024 03:00Few Clouds35°C9 mph, SW11%10000m999hPa49%
16-Jun-2024 06:00Clear Sky42°C4 mph, SW5%10000m998hPa28%
16-Jun-2024 09:00Clear Sky45°C4 mph, SE0%10000m996hPa19%
16-Jun-2024 12:00Clear Sky47°C4 mph, SE0%10000m993hPa15%
16-Jun-2024 15:00Clear Sky43°C18 mph, SE0%10000m995hPa25%
16-Jun-2024 18:00Clear Sky39°C11 mph, S0%10000m996hPa41%
16-Jun-2024 21:00Clear Sky35°C13 mph, SW0%10000m996hPa52%
17-Jun-2024 00:00Clear Sky33°C9 mph, SW0%10000m996hPa54%
17-Jun-2024 03:00Clear Sky35°C9 mph, SW0%10000m998hPa46%
17-Jun-2024 06:00Clear Sky41°C2 mph, S0%10000m998hPa28%
17-Jun-2024 09:00Clear Sky45°C4 mph, E0%10000m995hPa21%
17-Jun-2024 12:00Clear Sky47°C11 mph, SE0%10000m993hPa17%
17-Jun-2024 15:00Clear Sky41°C16 mph, S0%10000m994hPa32%
17-Jun-2024 18:00Clear Sky36°C16 mph, S0%10000m996hPa50%
17-Jun-2024 21:00Clear Sky34°C13 mph, SW0%10000m996hPa57%
18-Jun-2024 00:00Clear Sky33°C11 mph, SW0%10000m995hPa59%